Thicket Portage, Canada
Current Conditions -  °F | °C
As of 6:00 AM on Saturday 25 Oct 2014 (Local Time) from CYTH Reporting Station
Overcast Overcast  
Wind Chill: 26°   Ceiling: 5000
Heat Index: 36°   Visibility: 15mi
Dew Point: 30°   Wind: 16mph
Humidity: 81%   Direction: 280°W
Pressure: 29.6"   Gusts: 23mph
Location:  55.32°N, 97.7°W
Report Text: CYTH 251100Z 28014G20KT 15SM SCT020 OVC050 02/M01 A2960 RMKSC3SC5 SLP034
Loading
Personal Weather Stations






























Interactive Weather Map
Tropical Storm Tracking
New forecast layout! Learn more

10-Day Weather Forecast

Advertisements
Track Severe Weather on mobile